sensor_id;sensor_type;location;lat;lon;timestamp;temperature;humidity
15707;DHT22;7953;54.302;10.128;2024-03-02T00:00:49;8.40;99.90
15707;DHT22;7953;54.302;10.128;2024-03-02T00:03:17;8.30;99.90
15707;DHT22;7953;54.302;10.128;2024-03-02T00:05:47;8.30;99.90
15707;DHT22;7953;54.302;10.128;2024-03-02T00:08:22;8.30;99.90
15707;DHT22;7953;54.302;10.128;2024-03-02T00:10:50;8.30;99.90
15707;DHT22;7953;54.302;10.128;2024-03-02T00:13:20;8.30;99.90
15707;DHT22;7953;54.302;10.128;2024-03-02T00:15:51;8.30;99.90
15707;DHT22;7953;54.302;10.128;2024-03-02T00:18:19;8.30;99.90
15707;DHT22;7953;54.302;10.128;2024-03-02T00:20:47;8.30;99.90
15707;DHT22;7953;54.302;10.128;2024-03-02T00:23:16;8.20;99.90
15707;DHT22;7953;54.302;10.128;2024-03-02T00:25:46;8.30;99.90
15707;DHT22;7953;54.302;10.128;2024-03-02T00:28:16;8.20;99.90
15707;DHT22;7953;54.302;10.128;2024-03-02T00:30:56;8.20;99.90
15707;DHT22;7953;54.302;10.128;2024-03-02T00:33:26;8.30;99.90
15707;DHT22;7953;54.302;10.128;2024-03-02T00:35:53;8.30;99.90
15707;DHT22;7953;54.302;10.128;2024-03-02T00:38:21;8.30;99.90
15707;DHT22;7953;54.302;10.128;2024-03-02T00:40:49;8.30;99.90
15707;DHT22;7953;54.302;10.128;2024-03-02T00:43:44;8.30;99.90
15707;DHT22;7953;54.302;10.128;2024-03-02T00:46:13;8.40;99.90
15707;DHT22;7953;54.302;10.128;2024-03-02T00:48:50;8.40;99.90
15707;DHT22;7953;54.302;10.128;2024-03-02T00:51:17;8.40;99.90
15707;DHT22;7953;54.302;10.128;2024-03-02T00:53:46;8.40;99.90
15707;DHT22;7953;54.302;10.128;2024-03-02T00:56:13;8.40;99.90
15707;DHT22;7953;54.302;10.128;2024-03-02T00:58:40;8.50;99.90
15707;DHT22;7953;54.302;10.128;2024-03-02T01:01:07;8.50;99.90
15707;DHT22;7953;54.302;10.128;2024-03-02T01:03:35;8.50;99.90
15707;DHT22;7953;54.302;10.128;2024-03-02T01:06:03;8.40;99.90
15707;DHT22;7953;54.302;10.128;2024-03-02T01:08:30;8.40;99.90
15707;DHT22;7953;54.302;10.128;2024-03-02T01:10:58;8.40;99.90
15707;DHT22;7953;54.302;10.128;2024-03-02T01:13:26;8.40;99.90
15707;DHT22;7953;54.302;10.128;2024-03-02T01:15:53;8.30;99.90
15707;DHT22;7953;54.302;10.128;2024-03-02T01:18:20;8.30;99.90
15707;DHT22;7953;54.302;10.128;2024-03-02T01:20:47;8.20;99.90
15707;DHT22;7953;54.302;10.128;2024-03-02T01:23:17;8.20;99.90
15707;DHT22;7953;54.302;10.128;2024-03-02T01:25:45;8.20;99.90
15707;DHT22;7953;54.302;10.128;2024-03-02T01:28:13;8.20;99.90
15707;DHT22;7953;54.302;10.128;2024-03-02T01:30:40;8.20;99.90
15707;DHT22;7953;54.302;10.128;2024-03-02T01:33:07;8.20;99.90
15707;DHT22;7953;54.302;10.128;2024-03-02T01:35:34;8.10;99.90
15707;DHT22;7953;54.302;10.128;2024-03-02T01:38:01;8.10;99.90
15707;DHT22;7953;54.302;10.128;2024-03-02T01:40:28;8.10;99.90
15707;DHT22;7953;54.302;10.128;2024-03-02T01:42:55;8.10;99.90
15707;DHT22;7953;54.302;10.128;2024-03-02T01:45:25;8.10;99.90
15707;DHT22;7953;54.302;10.128;2024-03-02T01:47:52;8.10;99.90
15707;DHT22;7953;54.302;10.128;2024-03-02T01:50:25;8.10;99.90
15707;DHT22;7953;54.302;10.128;2024-03-02T01:52:53;8.00;99.90
15707;DHT22;7953;54.302;10.128;2024-03-02T01:55:20;8.10;99.90
15707;DHT22;7953;54.302;10.128;2024-03-02T01:57:47;8.10;99.90
15707;DHT22;7953;54.302;10.128;2024-03-02T02:00:15;8.10;99.90
15707;DHT22;7953;54.302;10.128;2024-03-02T02:02:44;8.00;99.90
15707;DHT22;7953;54.302;10.128;2024-03-02T02:05:10;8.00;99.90
15707;DHT22;7953;54.302;10.128;2024-03-02T02:07:38;8.00;99.90
15707;DHT22;7953;54.302;10.128;2024-03-02T02:10:05;8.00;99.90
15707;DHT22;7953;54.302;10.128;2024-03-02T02:12:32;7.90;99.90
15707;DHT22;7953;54.302;10.128;2024-03-02T02:14:59;8.00;99.90
15707;DHT22;7953;54.302;10.128;2024-03-02T02:17:26;8.00;99.90
15707;DHT22;7953;54.302;10.128;2024-03-02T02:19:54;8.00;99.90
15707;DHT22;7953;54.302;10.128;2024-03-02T02:22:23;7.90;99.90
15707;DHT22;7953;54.302;10.128;2024-03-02T02:24:49;7.90;99.90
15707;DHT22;7953;54.302;10.128;2024-03-02T02:27:16;7.90;99.90
15707;DHT22;7953;54.302;10.128;2024-03-02T02:29:43;7.90;99.90
15707;DHT22;7953;54.302;10.128;2024-03-02T02:32:10;7.90;99.90
15707;DHT22;7953;54.302;10.128;2024-03-02T02:34:37;7.90;99.90
15707;DHT22;7953;54.302;10.128;2024-03-02T02:37:04;7.90;99.90
15707;DHT22;7953;54.302;10.128;2024-03-02T02:39:32;7.90;99.90
15707;DHT22;7953;54.302;10.128;2024-03-02T02:41:59;7.90;99.90
15707;DHT22;7953;54.302;10.128;2024-03-02T02:44:28;7.90;99.90
15707;DHT22;7953;54.302;10.128;2024-03-02T02:46:55;7.90;99.90
15707;DHT22;7953;54.302;10.128;2024-03-02T02:49:22;7.80;99.90
15707;DHT22;7953;54.302;10.128;2024-03-02T02:51:49;7.90;99.90
15707;DHT22;7953;54.302;10.128;2024-03-02T02:54:16;7.80;99.90
15707;DHT22;7953;54.302;10.128;2024-03-02T02:56:44;7.80;99.90
15707;DHT22;7953;54.302;10.128;2024-03-02T02:59:11;7.80;99.90
15707;DHT22;7953;54.302;10.128;2024-03-02T03:01:38;7.80;99.90
15707;DHT22;7953;54.302;10.128;2024-03-02T03:04:05;7.80;99.90
15707;DHT22;7953;54.302;10.128;2024-03-02T03:06:32;7.80;99.90
15707;DHT22;7953;54.302;10.128;2024-03-02T03:08:59;7.90;99.90
15707;DHT22;7953;54.302;10.128;2024-03-02T03:11:26;7.90;99.90
15707;DHT22;7953;54.302;10.128;2024-03-02T03:13:54;7.90;99.90
15707;DHT22;7953;54.302;10.128;2024-03-02T03:16:21;7.90;99.90
15707;DHT22;7953;54.302;10.128;2024-03-02T03:18:48;7.90;99.90
15707;DHT22;7953;54.302;10.128;2024-03-02T03:21:17;7.90;99.90
15707;DHT22;7953;54.302;10.128;2024-03-02T03:23:44;7.90;99.90
15707;DHT22;7953;54.302;10.128;2024-03-02T03:26:10;7.90;99.90
15707;DHT22;7953;54.302;10.128;2024-03-02T03:28:37;7.80;99.90
15707;DHT22;7953;54.302;10.128;2024-03-02T03:31:06;7.80;99.90
15707;DHT22;7953;54.302;10.128;2024-03-02T03:33:32;7.70;99.90
15707;DHT22;7953;54.302;10.128;2024-03-02T03:36:00;7.80;99.90
15707;DHT22;7953;54.302;10.128;2024-03-02T03:38:28;7.70;99.90
15707;DHT22;7953;54.302;10.128;2024-03-02T03:40:55;7.70;99.90
15707;DHT22;7953;54.302;10.128;2024-03-02T03:43:22;7.70;99.90
15707;DHT22;7953;54.302;10.128;2024-03-02T03:45:49;7.70;99.90
15707;DHT22;7953;54.302;10.128;2024-03-02T03:48:17;7.70;99.90
15707;DHT22;7953;54.302;10.128;2024-03-02T03:50:45;7.70;99.90
15707;DHT22;7953;54.302;10.128;2024-03-02T03:53:12;7.70;99.90
15707;DHT22;7953;54.302;10.128;2024-03-02T03:55:40;7.70;99.90
15707;DHT22;7953;54.302;10.128;2024-03-02T03:58:07;7.70;99.90
15707;DHT22;7953;54.302;10.128;2024-03-02T04:00:33;7.70;99.90
15707;DHT22;7953;54.302;10.128;2024-03-02T04:03:00;7.70;99.90
15707;DHT22;7953;54.302;10.128;2024-03-02T04:05:29;7.70;99.90
15707;DHT22;7953;54.302;10.128;2024-03-02T04:07:55;7.60;99.90
15707;DHT22;7953;54.302;10.128;2024-03-02T04:10:22;7.70;99.90
15707;DHT22;7953;54.302;10.128;2024-03-02T04:12:50;7.60;99.90
15707;DHT22;7953;54.302;10.128;2024-03-02T04:15:17;7.60;99.90
15707;DHT22;7953;54.302;10.128;2024-03-02T04:17:44;7.60;99.90
15707;DHT22;7953;54.302;10.128;2024-03-02T04:20:11;7.60;99.90
15707;DHT22;7953;54.302;10.128;2024-03-02T04:22:40;7.60;99.90
15707;DHT22;7953;54.302;10.128;2024-03-02T04:25:08;7.60;99.90
15707;DHT22;7953;54.302;10.128;2024-03-02T04:27:35;7.50;99.90
15707;DHT22;7953;54.302;10.128;2024-03-02T04:30:02;7.50;99.90
15707;DHT22;7953;54.302;10.128;2024-03-02T04:32:30;7.40;99.90
15707;DHT22;7953;54.302;10.128;2024-03-02T04:34:57;7.40;99.90
15707;DHT22;7953;54.302;10.128;2024-03-02T04:37:24;7.40;99.90
15707;DHT22;7953;54.302;10.128;2024-03-02T04:39:52;7.40;99.90
15707;DHT22;7953;54.302;10.128;2024-03-02T04:42:19;7.40;99.90
15707;DHT22;7953;54.302;10.128;2024-03-02T04:44:46;7.40;99.90
15707;DHT22;7953;54.302;10.128;2024-03-02T04:47:13;7.40;99.90
15707;DHT22;7953;54.302;10.128;2024-03-02T04:49:40;7.40;99.90
15707;DHT22;7953;54.302;10.128;2024-03-02T04:52:07;7.40;99.90
15707;DHT22;7953;54.302;10.128;2024-03-02T04:54:33;7.40;99.90
15707;DHT22;7953;54.302;10.128;2024-03-02T04:57:23;7.40;99.90
15707;DHT22;7953;54.302;10.128;2024-03-02T04:59:49;7.40;99.90
15707;DHT22;7953;54.302;10.128;2024-03-02T05:02:16;7.30;99.90
15707;DHT22;7953;54.302;10.128;2024-03-02T05:04:43;7.30;99.90
15707;DHT22;7953;54.302;10.128;2024-03-02T05:07:10;7.30;99.90
15707;DHT22;7953;54.302;10.128;2024-03-02T05:09:37;7.20;99.90
15707;DHT22;7953;54.302;10.128;2024-03-02T05:12:04;7.20;99.90
15707;DHT22;7953;54.302;10.128;2024-03-02T05:15:02;7.30;99.90
15707;DHT22;7953;54.302;10.128;2024-03-02T05:17:29;7.30;99.90
15707;DHT22;7953;54.302;10.128;2024-03-02T05:19:56;7.30;99.90
15707;DHT22;7953;54.302;10.128;2024-03-02T05:22:22;7.30;99.90
15707;DHT22;7953;54.302;10.128;2024-03-02T05:24:49;7.20;99.90
15707;DHT22;7953;54.302;10.128;2024-03-02T05:27:16;7.30;99.90
15707;DHT22;7953;54.302;10.128;2024-03-02T05:29:43;7.30;99.90
15707;DHT22;7953;54.302;10.128;2024-03-02T05:32:11;7.30;99.90
15707;DHT22;7953;54.302;10.128;2024-03-02T05:34:38;7.20;99.90
15707;DHT22;7953;54.302;10.128;2024-03-02T05:37:05;7.20;99.90
15707;DHT22;7953;54.302;10.128;2024-03-02T05:39:32;7.30;99.90
15707;DHT22;7953;54.302;10.128;2024-03-02T05:41:59;7.30;99.90
15707;DHT22;7953;54.302;10.128;2024-03-02T05:44:26;7.30;99.90
15707;DHT22;7953;54.302;10.128;2024-03-02T05:46:53;7.30;99.90
15707;DHT22;7953;54.302;10.128;2024-03-02T05:49:21;7.30;99.90
15707;DHT22;7953;54.302;10.128;2024-03-02T05:51:48;7.30;99.90
15707;DHT22;7953;54.302;10.128;2024-03-02T05:54:14;7.30;99.90
15707;DHT22;7953;54.302;10.128;2024-03-02T05:56:41;7.20;99.90
15707;DHT22;7953;54.302;10.128;2024-03-02T05:59:08;7.20;99.90
15707;DHT22;7953;54.302;10.128;2024-03-02T06:01:38;7.20;99.90
15707;DHT22;7953;54.302;10.128;2024-03-02T06:04:05;7.20;99.90
15707;DHT22;7953;54.302;10.128;2024-03-02T06:06:33;7.20;99.90
15707;DHT22;7953;54.302;10.128;2024-03-02T06:09:00;7.20;99.90
15707;DHT22;7953;54.302;10.128;2024-03-02T06:11:28;7.20;99.90
15707;DHT22;7953;54.302;10.128;2024-03-02T06:13:55;7.20;99.90
15707;DHT22;7953;54.302;10.128;2024-03-02T06:16:22;7.30;99.90
15707;DHT22;7953;54.302;10.128;2024-03-02T06:18:49;7.20;99.90
15707;DHT22;7953;54.302;10.128;2024-03-02T06:21:17;7.20;99.90
15707;DHT22;7953;54.302;10.128;2024-03-02T06:23:46;7.20;99.90
15707;DHT22;7953;54.302;10.128;2024-03-02T06:26:13;7.20;99.90
15707;DHT22;7953;54.302;10.128;2024-03-02T06:28:39;7.20;99.90
15707;DHT22;7953;54.302;10.128;2024-03-02T06:31:06;7.30;99.90
15707;DHT22;7953;54.302;10.128;2024-03-02T06:33:33;7.30;99.90
15707;DHT22;7953;54.302;10.128;2024-03-02T06:36:00;7.30;99.90
15707;DHT22;7953;54.302;10.128;2024-03-02T06:38:27;7.30;99.90
15707;DHT22;7953;54.302;10.128;2024-03-02T06:40:55;7.30;99.90
15707;DHT22;7953;54.302;10.128;2024-03-02T06:43:22;7.40;99.90
15707;DHT22;7953;54.302;10.128;2024-03-02T06:45:49;7.30;99.90
15707;DHT22;7953;54.302;10.128;2024-03-02T06:48:16;7.30;99.90
15707;DHT22;7953;54.302;10.128;2024-03-02T06:50:45;7.30;99.90
15707;DHT22;7953;54.302;10.128;2024-03-02T06:53:13;7.30;99.90
15707;DHT22;7953;54.302;10.128;2024-03-02T06:55:43;7.40;99.90
15707;DHT22;7953;54.302;10.128;2024-03-02T06:58:11;7.40;99.90
15707;DHT22;7953;54.302;10.128;2024-03-02T07:00:38;7.50;99.90
15707;DHT22;7953;54.302;10.128;2024-03-02T07:03:05;7.50;99.90
15707;DHT22;7953;54.302;10.128;2024-03-02T07:05:31;7.50;99.90
15707;DHT22;7953;54.302;10.128;2024-03-02T07:07:58;7.50;99.90
15707;DHT22;7953;54.302;10.128;2024-03-02T07:10:27;7.60;99.90
15707;DHT22;7953;54.302;10.128;2024-03-02T07:12:53;7.60;99.90
15707;DHT22;7953;54.302;10.128;2024-03-02T07:15:22;7.60;99.90
15707;DHT22;7953;54.302;10.128;2024-03-02T07:18:03;7.50;99.90
15707;DHT22;7953;54.302;10.128;2024-03-02T07:20:29;7.60;99.90
15707;DHT22;7953;54.302;10.128;2024-03-02T07:22:56;7.60;99.90
15707;DHT22;7953;54.302;10.128;2024-03-02T07:25:23;7.60;99.90
15707;DHT22;7953;54.302;10.128;2024-03-02T07:27:51;7.60;99.90
15707;DHT22;7953;54.302;10.128;2024-03-02T07:30:18;7.60;99.90
15707;DHT22;7953;54.302;10.128;2024-03-02T07:32:49;7.60;99.90
15707;DHT22;7953;54.302;10.128;2024-03-02T07:35:16;7.70;99.90
15707;DHT22;7953;54.302;10.128;2024-03-02T07:37:43;7.70;99.90
15707;DHT22;7953;54.302;10.128;2024-03-02T07:40:11;7.70;99.90
15707;DHT22;7953;54.302;10.128;2024-03-02T07:42:38;7.70;99.90
15707;DHT22;7953;54.302;10.128;2024-03-02T07:45:06;7.70;99.90
15707;DHT22;7953;54.302;10.128;2024-03-02T07:47:34;7.80;99.90
15707;DHT22;7953;54.302;10.128;2024-03-02T07:50:02;7.80;99.90
15707;DHT22;7953;54.302;10.128;2024-03-02T07:52:31;7.90;99.90
15707;DHT22;7953;54.302;10.128;2024-03-02T07:54:58;7.90;99.90
15707;DHT22;7953;54.302;10.128;2024-03-02T07:57:25;7.90;99.90
15707;DHT22;7953;54.302;10.128;2024-03-02T07:59:52;8.00;99.90
15707;DHT22;7953;54.302;10.128;2024-03-02T08:02:19;8.10;99.90
15707;DHT22;7953;54.302;10.128;2024-03-02T08:04:47;8.20;99.90
15707;DHT22;7953;54.302;10.128;2024-03-02T08:07:16;8.30;99.90
15707;DHT22;7953;54.302;10.128;2024-03-02T08:09:43;8.30;99.90
15707;DHT22;7953;54.302;10.128;2024-03-02T08:12:10;8.30;99.90
15707;DHT22;7953;54.302;10.128;2024-03-02T08:14:37;8.40;99.90
15707;DHT22;7953;54.302;10.128;2024-03-02T08:17:03;8.40;99.90
15707;DHT22;7953;54.302;10.128;2024-03-02T08:19:35;8.50;99.90
15707;DHT22;7953;54.302;10.128;2024-03-02T08:22:03;8.50;99.90
15707;DHT22;7953;54.302;10.128;2024-03-02T08:24:31;8.50;99.90
15707;DHT22;7953;54.302;10.128;2024-03-02T08:26:59;8.60;99.90
15707;DHT22;7953;54.302;10.128;2024-03-02T08:29:26;8.60;99.90
15707;DHT22;7953;54.302;10.128;2024-03-02T08:31:53;8.50;99.90
15707;DHT22;7953;54.302;10.128;2024-03-02T08:34:20;8.60;99.90
15707;DHT22;7953;54.302;10.128;2024-03-02T08:36:47;8.60;99.90
15707;DHT22;7953;54.302;10.128;2024-03-02T08:39:14;8.50;99.90
15707;DHT22;7953;54.302;10.128;2024-03-02T08:41:44;8.50;99.90
15707;DHT22;7953;54.302;10.128;2024-03-02T08:44:12;8.50;99.90
15707;DHT22;7953;54.302;10.128;2024-03-02T08:46:39;8.60;99.90
15707;DHT22;7953;54.302;10.128;2024-03-02T08:49:06;8.70;99.90
15707;DHT22;7953;54.302;10.128;2024-03-02T08:51:33;8.70;99.90
15707;DHT22;7953;54.302;10.128;2024-03-02T08:54:00;8.70;99.90
15707;DHT22;7953;54.302;10.128;2024-03-02T08:56:27;8.70;99.90
15707;DHT22;7953;54.302;10.128;2024-03-02T08:58:55;8.70;99.90
15707;DHT22;7953;54.302;10.128;2024-03-02T09:01:22;8.80;99.90
15707;DHT22;7953;54.302;10.128;2024-03-02T09:03:49;8.80;99.90
15707;DHT22;7953;54.302;10.128;2024-03-02T09:06:16;8.90;99.90
15707;DHT22;7953;54.302;10.128;2024-03-02T09:08:43;9.00;99.90
15707;DHT22;7953;54.302;10.128;2024-03-02T09:11:10;9.20;99.90
15707;DHT22;7953;54.302;10.128;2024-03-02T09:13:38;9.30;99.90
15707;DHT22;7953;54.302;10.128;2024-03-02T09:16:06;9.60;99.90
15707;DHT22;7953;54.302;10.128;2024-03-02T09:18:36;9.80;99.90
15707;DHT22;7953;54.302;10.128;2024-03-02T09:21:04;10.30;99.90
15707;DHT22;7953;54.302;10.128;2024-03-02T09:23:31;10.80;99.90
15707;DHT22;7953;54.302;10.128;2024-03-02T09:25:58;11.30;99.90
15707;DHT22;7953;54.302;10.128;2024-03-02T09:28:25;11.60;99.90
15707;DHT22;7953;54.302;10.128;2024-03-02T09:30:52;11.60;99.90
15707;DHT22;7953;54.302;10.128;2024-03-02T09:33:20;11.60;99.90
15707;DHT22;7953;54.302;10.128;2024-03-02T09:35:47;11.70;99.90
15707;DHT22;7953;54.302;10.128;2024-03-02T09:38:15;11.70;99.90
15707;DHT22;7953;54.302;10.128;2024-03-02T09:40:42;11.60;99.90
15707;DHT22;7953;54.302;10.128;2024-03-02T09:43:09;11.20;99.90
15707;DHT22;7953;54.302;10.128;2024-03-02T09:45:36;11.10;99.90
15707;DHT22;7953;54.302;10.128;2024-03-02T09:48:05;11.10;99.90
15707;DHT22;7953;54.302;10.128;2024-03-02T09:50:33;11.10;99.90
15707;DHT22;7953;54.302;10.128;2024-03-02T09:53:00;11.20;99.90
15707;DHT22;7953;54.302;10.128;2024-03-02T09:55:27;11.20;99.90
15707;DHT22;7953;54.302;10.128;2024-03-02T09:57:54;11.10;99.90
15707;DHT22;7953;54.302;10.128;2024-03-02T10:00:21;11.00;99.90
15707;DHT22;7953;54.302;10.128;2024-03-02T10:02:48;11.00;99.90
15707;DHT22;7953;54.302;10.128;2024-03-02T10:05:24;10.90;99.90
15707;DHT22;7953;54.302;10.128;2024-03-02T10:07:58;11.00;99.90
15707;DHT22;7953;54.302;10.128;2024-03-02T10:10:34;10.90;99.90
15707;DHT22;7953;54.302;10.128;2024-03-02T10:13:04;10.90;99.90
15707;DHT22;7953;54.302;10.128;2024-03-02T10:15:31;10.90;99.90
15707;DHT22;7953;54.302;10.128;2024-03-02T10:17:58;10.90;99.90
15707;DHT22;7953;54.302;10.128;2024-03-02T10:20:27;10.90;99.90
15707;DHT22;7953;54.302;10.128;2024-03-02T10:22:55;11.00;99.90
15707;DHT22;7953;54.302;10.128;2024-03-02T10:25:33;11.20;99.90
15707;DHT22;7953;54.302;10.128;2024-03-02T10:28:00;11.20;99.90
15707;DHT22;7953;54.302;10.128;2024-03-02T10:30:27;11.30;99.90
15707;DHT22;7953;54.302;10.128;2024-03-02T10:32:55;11.50;99.90
15707;DHT22;7953;54.302;10.128;2024-03-02T10:35:22;11.80;99.90
15707;DHT22;7953;54.302;10.128;2024-03-02T10:37:49;11.80;99.90
15707;DHT22;7953;54.302;10.128;2024-03-02T10:40:18;11.90;99.90
15707;DHT22;7953;54.302;10.128;2024-03-02T10:42:47;12.00;99.90
15707;DHT22;7953;54.302;10.128;2024-03-02T10:45:15;12.20;99.90
15707;DHT22;7953;54.302;10.128;2024-03-02T10:47:43;12.20;99.90
15707;DHT22;7953;54.302;10.128;2024-03-02T10:50:10;12.20;99.90
15707;DHT22;7953;54.302;10.128;2024-03-02T10:52:37;12.20;99.90
15707;DHT22;7953;54.302;10.128;2024-03-02T10:55:05;12.20;99.90
15707;DHT22;7953;54.302;10.128;2024-03-02T10:57:41;12.30;99.90
15707;DHT22;7953;54.302;10.128;2024-03-02T11:00:12;12.30;99.90
15707;DHT22;7953;54.302;10.128;2024-03-02T11:02:45;12.20;99.90
15707;DHT22;7953;54.302;10.128;2024-03-02T11:05:20;12.20;99.90
15707;DHT22;7953;54.302;10.128;2024-03-02T11:07:52;12.10;99.90
15707;DHT22;7953;54.302;10.128;2024-03-02T11:10:20;12.20;99.90
15707;DHT22;7953;54.302;10.128;2024-03-02T11:12:52;12.30;99.90
15707;DHT22;7953;54.302;10.128;2024-03-02T11:15:25;12.50;99.90
15707;DHT22;7953;54.302;10.128;2024-03-02T11:17:52;12.50;99.90
15707;DHT22;7953;54.302;10.128;2024-03-02T11:20:19;12.30;99.90
15707;DHT22;7953;54.302;10.128;2024-03-02T11:22:46;12.20;99.90
15707;DHT22;7953;54.302;10.128;2024-03-02T11:25:28;12.30;99.90
15707;DHT22;7953;54.302;10.128;2024-03-02T11:28:02;12.40;99.90
15707;DHT22;7953;54.302;10.128;2024-03-02T11:30:52;12.50;99.90
15707;DHT22;7953;54.302;10.128;2024-03-02T11:33:26;12.70;99.90
15707;DHT22;7953;54.302;10.128;2024-03-02T11:35:56;12.60;99.90
15707;DHT22;7953;54.302;10.128;2024-03-02T11:38:29;12.60;99.90
15707;DHT22;7953;54.302;10.128;2024-03-02T11:40:56;12.60;99.90
15707;DHT22;7953;54.302;10.128;2024-03-02T11:43:25;12.60;99.90
15707;DHT22;7953;54.302;10.128;2024-03-02T11:45:58;12.50;99.90
15707;DHT22;7953;54.302;10.128;2024-03-02T11:48:25;12.60;99.90
15707;DHT22;7953;54.302;10.128;2024-03-02T11:50:52;12.80;99.90
15707;DHT22;7953;54.302;10.128;2024-03-02T11:53:20;12.90;99.90
15707;DHT22;7953;54.302;10.128;2024-03-02T11:55:47;13.10;99.90
15707;DHT22;7953;54.302;10.128;2024-03-02T11:58:16;13.00;99.90
15707;DHT22;7953;54.302;10.128;2024-03-02T12:00:46;13.00;99.90
15707;DHT22;7953;54.302;10.128;2024-03-02T12:03:14;13.10;99.90
15707;DHT22;7953;54.302;10.128;2024-03-02T12:05:42;12.80;99.90
15707;DHT22;7953;54.302;10.128;2024-03-02T12:08:10;12.90;99.90
15707;DHT22;7953;54.302;10.128;2024-03-02T12:10:37;13.00;99.90
15707;DHT22;7953;54.302;10.128;2024-03-02T12:13:05;13.10;99.90
15707;DHT22;7953;54.302;10.128;2024-03-02T12:15:34;13.20;99.90
15707;DHT22;7953;54.302;10.128;2024-03-02T12:18:02;13.40;99.90
15707;DHT22;7953;54.302;10.128;2024-03-02T12:20:32;13.40;99.90
15707;DHT22;7953;54.302;10.128;2024-03-02T12:23:01;13.30;99.90
15707;DHT22;7953;54.302;10.128;2024-03-02T12:25:28;13.30;99.90
15707;DHT22;7953;54.302;10.128;2024-03-02T12:27:57;13.20;99.90
15707;DHT22;7953;54.302;10.128;2024-03-02T12:30:26;13.10;99.90
15707;DHT22;7953;54.302;10.128;2024-03-02T12:32:53;12.90;99.90
15707;DHT22;7953;54.302;10.128;2024-03-02T12:35:21;12.80;99.90
15707;DHT22;7953;54.302;10.128;2024-03-02T12:37:51;12.80;99.90
15707;DHT22;7953;54.302;10.128;2024-03-02T12:40:19;12.80;99.90
15707;DHT22;7953;54.302;10.128;2024-03-02T12:42:47;12.70;99.90
15707;DHT22;7953;54.302;10.128;2024-03-02T12:45:15;12.70;99.90
15707;DHT22;7953;54.302;10.128;2024-03-02T12:47:49;12.60;99.90
15707;DHT22;7953;54.302;10.128;2024-03-02T12:50:16;12.60;99.90
15707;DHT22;7953;54.302;10.128;2024-03-02T12:52:43;12.60;99.90
15707;DHT22;7953;54.302;10.128;2024-03-02T12:55:11;12.70;99.90
15707;DHT22;7953;54.302;10.128;2024-03-02T12:57:39;12.60;99.90
15707;DHT22;7953;54.302;10.128;2024-03-02T13:00:07;12.60;99.90
15707;DHT22;7953;54.302;10.128;2024-03-02T13:02:35;12.60;99.90
15707;DHT22;7953;54.302;10.128;2024-03-02T13:05:02;12.60;99.90
15707;DHT22;7953;54.302;10.128;2024-03-02T13:07:29;12.70;99.90
15707;DHT22;7953;54.302;10.128;2024-03-02T13:09:57;12.70;99.90
15707;DHT22;7953;54.302;10.128;2024-03-02T13:12:26;12.70;99.90
15707;DHT22;7953;54.302;10.128;2024-03-02T13:14:53;12.70;99.90
15707;DHT22;7953;54.302;10.128;2024-03-02T13:17:20;12.70;99.90
15707;DHT22;7953;54.302;10.128;2024-03-02T13:19:53;12.70;99.90
15707;DHT22;7953;54.302;10.128;2024-03-02T13:22:20;12.70;99.90
15707;DHT22;7953;54.302;10.128;2024-03-02T13:24:48;12.70;99.90
15707;DHT22;7953;54.302;10.128;2024-03-02T13:27:15;12.70;99.90
15707;DHT22;7953;54.302;10.128;2024-03-02T13:29:43;12.70;99.90
15707;DHT22;7953;54.302;10.128;2024-03-02T13:32:10;12.60;99.90
15707;DHT22;7953;54.302;10.128;2024-03-02T13:34:36;12.60;99.90
15707;DHT22;7953;54.302;10.128;2024-03-02T13:37:03;12.60;99.90
15707;DHT22;7953;54.302;10.128;2024-03-02T13:39:31;12.60;99.90
15707;DHT22;7953;54.302;10.128;2024-03-02T13:42:00;12.60;99.90
15707;DHT22;7953;54.302;10.128;2024-03-02T13:44:31;12.60;99.90
15707;DHT22;7953;54.302;10.128;2024-03-02T13:47:00;12.50;99.90
15707;DHT22;7953;54.302;10.128;2024-03-02T13:49:27;12.50;99.90
15707;DHT22;7953;54.302;10.128;2024-03-02T13:51:59;12.50;99.90
15707;DHT22;7953;54.302;10.128;2024-03-02T13:54:28;12.50;99.90
15707;DHT22;7953;54.302;10.128;2024-03-02T13:56:55;12.50;99.90
15707;DHT22;7953;54.302;10.128;2024-03-02T13:59:24;12.50;99.90
15707;DHT22;7953;54.302;10.128;2024-03-02T14:01:52;12.50;99.90
15707;DHT22;7953;54.302;10.128;2024-03-02T14:04:20;12.50;99.90
15707;DHT22;7953;54.302;10.128;2024-03-02T14:06:47;12.50;99.90
15707;DHT22;7953;54.302;10.128;2024-03-02T14:09:13;12.50;99.90
15707;DHT22;7953;54.302;10.128;2024-03-02T14:11:40;12.50;99.90
15707;DHT22;7953;54.302;10.128;2024-03-02T14:14:07;12.50;99.90
15707;DHT22;7953;54.302;10.128;2024-03-02T14:16:34;12.50;99.90
15707;DHT22;7953;54.302;10.128;2024-03-02T14:19:01;12.50;99.90
15707;DHT22;7953;54.302;10.128;2024-03-02T14:21:31;12.50;99.90
15707;DHT22;7953;54.302;10.128;2024-03-02T14:23:57;12.50;99.90
15707;DHT22;7953;54.302;10.128;2024-03-02T14:26:24;12.60;99.90
15707;DHT22;7953;54.302;10.128;2024-03-02T14:28:51;12.50;99.90
15707;DHT22;7953;54.302;10.128;2024-03-02T14:31:18;12.60;99.90
15707;DHT22;7953;54.302;10.128;2024-03-02T14:33:45;12.50;99.90
15707;DHT22;7953;54.302;10.128;2024-03-02T14:36:12;12.60;99.90
15707;DHT22;7953;54.302;10.128;2024-03-02T14:38:40;12.50;99.90
15707;DHT22;7953;54.302;10.128;2024-03-02T14:41:07;12.50;99.90
15707;DHT22;7953;54.302;10.128;2024-03-02T14:43:34;12.50;99.90
15707;DHT22;7953;54.302;10.128;2024-03-02T14:46:03;12.50;99.90
15707;DHT22;7953;54.302;10.128;2024-03-02T14:48:30;12.60;99.90
15707;DHT22;7953;54.302;10.128;2024-03-02T14:50:57;12.70;99.90
15707;DHT22;7953;54.302;10.128;2024-03-02T14:53:24;12.60;99.90
15707;DHT22;7953;54.302;10.128;2024-03-02T14:55:52;12.70;99.90
15707;DHT22;7953;54.302;10.128;2024-03-02T14:58:19;12.70;99.90
15707;DHT22;7953;54.302;10.128;2024-03-02T15:00:46;12.90;99.90
15707;DHT22;7953;54.302;10.128;2024-03-02T15:03:13;12.90;99.90
15707;DHT22;7953;54.302;10.128;2024-03-02T15:05:40;13.00;99.90
15707;DHT22;7953;54.302;10.128;2024-03-02T15:08:07;12.90;99.90
15707;DHT22;7953;54.302;10.128;2024-03-02T15:10:34;13.00;99.90
15707;DHT22;7953;54.302;10.128;2024-03-02T15:13:03;13.00;99.90
15707;DHT22;7953;54.302;10.128;2024-03-02T15:15:30;13.00;99.90
15707;DHT22;7953;54.302;10.128;2024-03-02T15:17:56;13.00;99.90
15707;DHT22;7953;54.302;10.128;2024-03-02T15:20:23;12.90;99.90
15707;DHT22;7953;54.302;10.128;2024-03-02T15:22:50;12.90;99.90
15707;DHT22;7953;54.302;10.128;2024-03-02T15:25:17;12.90;99.90
15707;DHT22;7953;54.302;10.128;2024-03-02T15:27:44;12.90;99.90
15707;DHT22;7953;54.302;10.128;2024-03-02T15:30:13;12.80;99.90
15707;DHT22;7953;54.302;10.128;2024-03-02T15:32:39;12.90;99.90
15707;DHT22;7953;54.302;10.128;2024-03-02T15:35:07;12.80;99.90
15707;DHT22;7953;54.302;10.128;2024-03-02T15:37:34;12.90;99.90
15707;DHT22;7953;54.302;10.128;2024-03-02T15:40:01;12.80;99.90
15707;DHT22;7953;54.302;10.128;2024-03-02T15:42:32;12.80;99.90
15707;DHT22;7953;54.302;10.128;2024-03-02T15:44:59;12.80;99.90